createdAt,value
2023-05-17T00:01:56.248Z,78.46
2023-05-17T00:04:25.763Z,77.95
2023-05-17T00:06:55.288Z,77.44
2023-05-17T00:09:24.702Z,79.33
2023-05-17T00:11:56.764Z,79.49
2023-05-17T00:14:26.287Z,79.81
2023-05-17T00:16:55.761Z,78.39
2023-05-17T00:19:25.427Z,78.28
2023-05-17T00:21:54.923Z,77.66
2023-05-17T00:24:24.357Z,79.05
2023-05-17T00:26:56.336Z,78.35
2023-05-17T00:29:26.136Z,78.74
2023-05-17T00:31:55.652Z,77.73
2023-05-17T00:34:25.191Z,78.72
2023-05-17T00:36:54.589Z,78.62
2023-05-17T00:39:24.045Z,78.07
2023-05-17T00:41:56.201Z,77.74
2023-05-17T00:44:25.622Z,77.77
2023-05-17T00:46:59.922Z,76.91
2023-05-17T00:49:29.747Z,77.93
2023-05-17T00:51:59.374Z,78.07
2023-05-17T00:54:28.853Z,77.38
2023-05-17T00:57:02.024Z,75.64
2023-05-17T00:59:32.471Z,77.34
2023-05-17T01:02:04.165Z,76.63
2023-05-17T01:04:34.045Z,77.78
2023-05-17T01:07:03.570Z,77.34
2023-05-17T01:09:33.574Z,77.26
2023-05-17T01:12:14.719Z,76.21
2023-05-17T01:14:52.472Z,76.28
2023-05-17T01:17:28.333Z,76.92
2023-05-17T01:20:06.541Z,75.87
2023-05-17T01:22:46.665Z,74.88
2023-05-17T01:25:30.087Z,75.56
2023-05-17T01:28:04.217Z,77.03
2023-05-17T01:30:37.587Z,75.36
2023-05-17T01:33:07.689Z,75.52
2023-05-17T01:35:37.216Z,74.83
2023-05-17T01:38:06.622Z,74.50
2023-05-17T01:40:39.397Z,74.92
2023-05-17T01:43:19.788Z,74.24
2023-05-17T01:45:58.667Z,74.55
2023-05-17T01:48:34.237Z,74.26
2023-05-17T01:51:04.769Z,75.07
2023-05-17T01:53:40.880Z,74.50
2023-05-17T01:56:17.729Z,74.47
2023-05-17T01:58:51.287Z,75.22
2023-05-17T02:01:22.166Z,73.87
2023-05-17T02:03:52.290Z,74.72
2023-05-17T02:06:21.714Z,74.35
2023-05-17T02:08:51.132Z,74.44
2023-05-17T02:11:20.719Z,74.24
2023-05-17T02:13:52.757Z,74.19
2023-05-17T02:16:22.425Z,74.47
2023-05-17T02:18:51.929Z,74.30
2023-05-17T02:21:21.394Z,75.32
2023-05-17T02:23:51.253Z,74.88
2023-05-17T02:26:20.703Z,75.83
2023-05-17T02:28:52.684Z,74.49
2023-05-17T02:31:22.302Z,74.49
2023-05-17T02:33:51.760Z,75.39
2023-05-17T02:36:21.548Z,74.21
2023-05-17T02:38:51.105Z,74.14
2023-05-17T02:41:20.904Z,74.57
2023-05-17T02:43:53.177Z,73.59
2023-05-17T02:46:22.666Z,73.03
2023-05-17T02:48:52.173Z,73.22
2023-05-17T02:51:21.596Z,72.68
2023-05-17T02:53:51.040Z,73.08
2023-05-17T02:56:20.757Z,73.71
2023-05-17T02:58:52.817Z,72.86
2023-05-17T03:01:22.200Z,72.55
2023-05-17T03:03:51.863Z,72.49
2023-05-17T03:06:21.961Z,73.26
2023-05-17T03:08:51.542Z,72.56
2023-05-17T03:11:20.947Z,72.33
2023-05-17T03:13:53.002Z,71.83
2023-05-17T03:16:22.507Z,72.29
2023-05-17T03:18:52.094Z,73.07
2023-05-17T03:21:21.717Z,72.46
2023-05-17T03:23:51.252Z,72.55
2023-05-17T03:26:21.570Z,71.88
2023-05-17T03:28:53.794Z,72.04
2023-05-17T03:31:23.488Z,72.68
2023-05-17T03:33:53.098Z,74.00
2023-05-17T03:36:22.687Z,73.09
2023-05-17T03:38:52.169Z,72.01
2023-05-17T03:41:21.965Z,72.05
2023-05-17T03:43:53.971Z,70.99
2023-05-17T03:46:23.359Z,70.79
2023-05-17T03:48:52.823Z,71.78
2023-05-17T03:51:22.397Z,72.23
2023-05-17T03:54:00.124Z,70.96
2023-05-17T03:56:30.024Z,71.00
2023-05-17T03:59:02.008Z,70.62
2023-05-17T04:01:31.388Z,70.96
2023-05-17T04:04:01.566Z,70.28
2023-05-17T04:06:31.010Z,70.21
2023-05-17T04:09:00.640Z,70.32
2023-05-17T04:11:33.275Z,71.38
2023-05-17T04:14:05.257Z,71.13
2023-05-17T04:16:34.644Z,70.50
2023-05-17T04:19:04.285Z,70.04
2023-05-17T04:21:33.998Z,69.62
2023-05-17T04:24:03.541Z,69.50
2023-05-17T04:26:33.297Z,70.34
2023-05-17T04:29:05.419Z,69.89
2023-05-17T04:31:35.212Z,69.97
2023-05-17T04:34:04.670Z,70.67
2023-05-17T04:36:34.112Z,69.90
2023-05-17T04:39:03.662Z,70.11
2023-05-17T04:41:33.389Z,69.79
2023-05-17T04:44:05.553Z,70.22
2023-05-17T04:46:35.235Z,70.34
2023-05-17T04:49:04.922Z,70.60
2023-05-17T04:51:34.788Z,70.24
2023-05-17T04:54:07.077Z,70.61
2023-05-17T04:56:37.776Z,69.93
2023-05-17T04:59:10.041Z,70.29
2023-05-17T05:01:39.448Z,71.60
2023-05-17T05:04:09.052Z,71.89
2023-05-17T05:06:39.662Z,70.96
2023-05-17T05:09:09.931Z,70.88
2023-05-17T05:11:39.413Z,71.15
2023-05-17T05:14:11.396Z,72.26
2023-05-17T05:16:40.864Z,71.09
2023-05-17T05:19:11.089Z,70.38
2023-05-17T05:21:40.888Z,71.59
2023-05-17T05:24:11.042Z,70.98
2023-05-17T05:26:40.999Z,70.55
2023-05-17T05:29:12.939Z,70.87
2023-05-17T05:31:42.349Z,71.59
2023-05-17T05:34:11.783Z,70.07
2023-05-17T05:36:41.207Z,70.37
2023-05-17T05:39:10.741Z,69.95
2023-05-17T05:41:40.114Z,69.65
2023-05-17T05:44:09.477Z,69.06
2023-05-17T05:46:41.532Z,68.74
2023-05-17T05:49:10.968Z,69.11
2023-05-17T05:51:40.368Z,69.16
2023-05-17T05:54:10.623Z,68.07
2023-05-17T05:56:40.030Z,67.09
2023-05-17T05:59:09.416Z,66.17
2023-05-17T06:01:41.465Z,66.20
2023-05-17T06:04:11.006Z,65.31
2023-05-17T06:06:40.564Z,65.05
2023-05-17T06:09:12.528Z,65.25
2023-05-17T06:11:42.029Z,64.96
2023-05-17T06:14:11.775Z,64.17
2023-05-17T06:16:43.758Z,65.09
2023-05-17T06:19:13.254Z,65.41
2023-05-17T06:21:42.644Z,65.01
2023-05-17T06:24:12.050Z,65.56
2023-05-17T06:26:41.431Z,65.65
2023-05-17T06:29:10.785Z,65.64
2023-05-17T06:31:42.730Z,65.50
2023-05-17T06:34:12.149Z,64.63
2023-05-17T06:36:41.738Z,64.70
2023-05-17T06:39:11.559Z,64.15
2023-05-17T06:41:40.940Z,64.11
2023-05-17T06:44:10.442Z,64.23
2023-05-17T06:46:39.841Z,64.12
2023-05-17T06:49:11.813Z,63.61
2023-05-17T06:51:41.209Z,63.54
2023-05-17T06:54:10.699Z,63.72
2023-05-17T06:56:40.319Z,63.68
2023-05-17T06:59:09.698Z,63.29
2023-05-17T07:01:39.899Z,63.39
2023-05-17T07:04:11.966Z,62.54
2023-05-17T07:06:41.498Z,61.79
2023-05-17T07:09:10.980Z,62.38
2023-05-17T07:11:40.385Z,62.58
2023-05-17T07:14:09.897Z,62.83
2023-05-17T07:16:39.266Z,62.95
2023-05-17T07:19:11.393Z,63.29
2023-05-17T07:21:41.862Z,63.77
2023-05-17T07:24:11.975Z,63.29
2023-05-17T07:26:41.454Z,64.64
2023-05-17T07:29:10.815Z,64.29
2023-05-17T07:31:40.314Z,64.06
2023-05-17T07:34:12.467Z,64.00
2023-05-17T07:36:41.886Z,64.52
2023-05-17T07:39:11.567Z,64.11
2023-05-17T07:41:42.005Z,64.92
2023-05-17T07:44:11.413Z,64.07
2023-05-17T07:46:40.976Z,64.70
2023-05-17T07:49:13.263Z,64.64
2023-05-17T07:51:42.785Z,64.55
2023-05-17T07:54:12.196Z,64.80
2023-05-17T07:56:41.716Z,64.06
2023-05-17T07:59:11.080Z,63.22
2023-05-17T08:01:40.462Z,62.95
2023-05-17T08:04:10.062Z,62.09
2023-05-17T08:06:42.006Z,61.71
2023-05-17T08:09:11.585Z,62.38
2023-05-17T08:11:45.991Z,61.08
2023-05-17T08:14:17.326Z,60.20
2023-05-17T08:16:49.241Z,59.75
2023-05-17T08:19:18.728Z,58.78
2023-05-17T08:21:50.791Z,58.10
2023-05-17T08:24:20.459Z,58.50
2023-05-17T08:26:49.824Z,58.47
2023-05-17T08:29:19.222Z,58.21
2023-05-17T08:31:48.654Z,58.09
2023-05-17T08:34:18.041Z,58.23
2023-05-17T08:36:50.359Z,57.77
2023-05-17T08:39:20.623Z,57.98
2023-05-17T08:41:50.139Z,57.69
2023-05-17T08:44:19.894Z,57.63
2023-05-17T08:46:53.697Z,57.70
2023-05-17T08:49:26.095Z,57.60
2023-05-17T08:52:02.296Z,57.79
2023-05-17T08:54:31.689Z,57.13
2023-05-17T08:57:04.762Z,57.88
2023-05-17T08:59:36.757Z,57.85
2023-05-17T09:02:08.484Z,57.85
2023-05-17T09:04:38.189Z,57.84
2023-05-17T09:07:10.246Z,58.14
2023-05-17T09:09:39.913Z,58.02
2023-05-17T09:12:09.976Z,58.52
2023-05-17T09:14:39.325Z,58.65
2023-05-17T09:17:08.765Z,58.77
2023-05-17T09:19:46.481Z,58.57
2023-05-17T09:22:21.628Z,58.71
2023-05-17T09:24:52.829Z,58.84
2023-05-17T09:27:22.247Z,59.27
2023-05-17T09:29:51.706Z,59.18
2023-05-17T09:32:22.185Z,59.82
2023-05-17T09:34:51.721Z,59.34
2023-05-17T09:37:23.700Z,59.61
2023-05-17T09:39:53.153Z,59.15
2023-05-17T09:42:28.147Z,59.83
2023-05-17T09:45:03.320Z,59.87
2023-05-17T09:47:34.355Z,59.17
2023-05-17T09:50:05.261Z,59.44
2023-05-17T09:52:40.247Z,59.63
2023-05-17T09:55:11.443Z,59.22
2023-05-17T09:57:41.994Z,58.86
2023-05-17T10:00:13.693Z,58.06
2023-05-17T10:02:45.156Z,59.06
2023-05-17T10:05:16.065Z,58.49
2023-05-17T10:07:50.443Z,58.91
2023-05-17T10:10:20.920Z,59.37
2023-05-17T10:12:52.474Z,59.28
2023-05-17T10:15:24.101Z,59.01
2023-05-17T10:17:53.793Z,59.16
2023-05-17T10:20:24.576Z,59.23
2023-05-17T10:22:58.876Z,59.19
2023-05-17T10:25:28.756Z,58.82
2023-05-17T10:27:59.423Z,58.74
2023-05-17T10:30:29.481Z,58.58
2023-05-17T10:32:59.198Z,59.26
2023-05-17T10:35:31.207Z,59.43
2023-05-17T10:38:03.364Z,59.62
2023-05-17T10:40:34.677Z,59.25
2023-05-17T10:43:04.638Z,59.19
2023-05-17T10:45:34.122Z,58.98
2023-05-17T10:48:07.399Z,58.83
2023-05-17T10:50:53.944Z,59.21
2023-05-17T10:53:32.932Z,58.74
2023-05-17T10:56:02.310Z,58.36
2023-05-17T10:58:31.825Z,58.50
2023-05-17T11:01:01.270Z,58.21
2023-05-17T11:03:34.646Z,59.01
2023-05-17T11:06:24.036Z,59.88
2023-05-17T11:09:19.480Z,59.42
2023-05-17T11:12:07.813Z,59.78
2023-05-17T11:14:57.612Z,58.12
2023-05-17T11:17:29.608Z,57.26
2023-05-17T11:20:06.191Z,56.46
2023-05-17T11:22:41.250Z,56.58
2023-05-17T11:25:15.020Z,57.00
2023-05-17T11:27:49.359Z,56.69
2023-05-17T11:30:21.615Z,56.96
2023-05-17T11:32:53.404Z,57.10
2023-05-17T11:35:27.227Z,56.90
2023-05-17T11:38:14.513Z,56.49
2023-05-17T11:40:47.583Z,56.25
2023-05-17T11:43:19.245Z,56.29
2023-05-17T11:45:53.207Z,56.41
2023-05-17T11:48:24.426Z,55.58
2023-05-17T11:50:56.822Z,55.40
2023-05-17T11:53:28.441Z,55.21
2023-05-17T11:56:05.038Z,55.46
2023-05-17T11:58:34.601Z,55.20
2023-05-17T12:01:04.734Z,55.82
2023-05-17T12:03:35.605Z,55.49
2023-05-17T12:06:09.704Z,55.40
2023-05-17T12:08:40.669Z,55.63
2023-05-17T12:11:15.199Z,55.66
2023-05-17T12:13:46.962Z,56.16
2023-05-17T12:16:18.414Z,56.75
2023-05-17T12:18:51.245Z,56.19
2023-05-17T12:21:21.691Z,55.89
2023-05-17T12:23:55.113Z,55.92
2023-05-17T12:26:27.115Z,56.43
2023-05-17T12:28:58.402Z,56.29
2023-05-17T12:31:31.874Z,56.28
2023-05-17T12:34:02.812Z,56.35
2023-05-17T12:36:34.277Z,55.33
2023-05-17T12:39:06.294Z,55.70
2023-05-17T12:41:38.954Z,55.81
2023-05-17T12:44:15.790Z,55.40
2023-05-17T12:46:48.255Z,55.34
2023-05-17T12:49:17.669Z,55.75
2023-05-17T12:51:48.080Z,56.38
2023-05-17T12:54:28.346Z,56.74
2023-05-17T12:57:00.395Z,57.60
2023-05-17T12:59:29.879Z,57.59
2023-05-17T13:02:01.062Z,56.00
2023-05-17T13:04:38.106Z,55.93
2023-05-17T13:07:08.493Z,56.34
2023-05-17T13:09:49.866Z,56.70
2023-05-17T13:12:26.304Z,55.66
2023-05-17T13:14:56.224Z,55.70
2023-05-17T13:17:28.306Z,55.75
2023-05-17T13:19:58.705Z,55.76
2023-05-17T13:22:28.375Z,56.32
2023-05-17T13:24:58.037Z,57.27
2023-05-17T13:27:30.988Z,57.22
2023-05-17T13:30:00.494Z,56.88
2023-05-17T13:32:30.010Z,56.69
2023-05-17T13:34:59.616Z,56.75
2023-05-17T13:37:29.020Z,56.11
2023-05-17T13:39:58.395Z,56.08
2023-05-17T13:42:30.488Z,56.43
2023-05-17T13:45:01.630Z,56.35
2023-05-17T13:47:32.531Z,55.62
2023-05-17T13:50:04.018Z,55.45
2023-05-17T13:52:33.846Z,56.89
2023-05-17T13:55:03.230Z,57.03
2023-05-17T13:57:35.320Z,57.66
2023-05-17T14:00:05.614Z,57.47
2023-05-17T14:02:35.099Z,56.96
2023-05-17T14:05:07.343Z,56.72
2023-05-17T14:07:36.803Z,56.40
2023-05-17T14:10:06.975Z,55.89
2023-05-17T14:12:38.943Z,55.51
2023-05-17T14:15:10.870Z,54.76
2023-05-17T14:17:40.299Z,54.69
2023-05-17T14:20:12.084Z,55.20
2023-05-17T14:22:41.448Z,56.22
2023-05-17T14:25:11.976Z,56.01
2023-05-17T14:27:43.955Z,56.50
2023-05-17T14:30:14.978Z,56.19
2023-05-17T14:32:44.468Z,56.69
2023-05-17T14:35:13.994Z,57.17
2023-05-17T14:37:44.861Z,57.51
2023-05-17T14:40:15.312Z,57.16
2023-05-17T14:42:47.616Z,56.67
2023-05-17T14:45:17.023Z,56.84
2023-05-17T14:47:46.495Z,56.51
2023-05-17T14:50:16.100Z,56.30
2023-05-17T14:52:46.034Z,57.03
2023-05-17T14:55:16.598Z,56.43
2023-05-17T14:57:50.416Z,56.13
2023-05-17T15:00:20.528Z,55.72
2023-05-17T15:02:50.113Z,56.35
2023-05-17T15:05:19.970Z,56.29
2023-05-17T15:07:49.479Z,56.02
2023-05-17T15:10:18.858Z,56.62
2023-05-17T15:12:50.980Z,56.41
2023-05-17T15:15:22.249Z,56.58
2023-05-17T15:17:51.959Z,57.35
2023-05-17T15:20:21.672Z,58.26
2023-05-17T15:22:51.520Z,58.51
2023-05-17T15:25:22.634Z,58.21
2023-05-17T15:27:54.563Z,58.27
2023-05-17T15:30:27.197Z,57.92
2023-05-17T15:32:56.673Z,57.77
2023-05-17T15:35:26.663Z,57.43
2023-05-17T15:37:56.184Z,57.07
2023-05-17T15:40:25.545Z,56.81
2023-05-17T15:42:57.513Z,57.29
2023-05-17T15:45:26.949Z,56.89
2023-05-17T15:47:57.296Z,56.20
2023-05-17T15:50:26.814Z,56.44
2023-05-17T15:52:56.275Z,56.41
2023-05-17T15:55:25.748Z,56.01
2023-05-17T15:57:57.719Z,56.56
2023-05-17T16:00:27.870Z,56.07
2023-05-17T16:02:57.285Z,56.51
2023-05-17T16:05:26.716Z,57.06
2023-05-17T16:07:56.500Z,57.21
2023-05-17T16:10:26.202Z,56.86
2023-05-17T16:12:58.147Z,57.59
2023-05-17T16:15:27.765Z,57.25
2023-05-17T16:17:57.481Z,56.83
2023-05-17T16:20:27.170Z,56.33
2023-05-17T16:22:56.640Z,56.63
2023-05-17T16:25:27.652Z,57.12
2023-05-17T16:27:59.834Z,56.46
2023-05-17T16:30:29.314Z,56.95
2023-05-17T16:32:58.888Z,57.32
2023-05-17T16:35:29.131Z,57.15
2023-05-17T16:37:58.644Z,57.48
2023-05-17T16:40:29.005Z,57.07
2023-05-17T16:43:01.132Z,57.15
2023-05-17T16:45:30.802Z,57.30
2023-05-17T16:48:00.363Z,57.60
2023-05-17T16:50:30.017Z,57.29
2023-05-17T16:52:59.569Z,57.04
2023-05-17T16:55:28.939Z,56.50
2023-05-17T16:58:00.880Z,57.05
2023-05-17T17:00:30.707Z,56.93
2023-05-17T17:03:01.307Z,57.34
2023-05-17T17:05:31.094Z,57.50
2023-05-17T17:08:00.439Z,57.30
2023-05-17T17:10:30.990Z,57.51
2023-05-17T17:13:03.672Z,57.24
2023-05-17T17:15:33.211Z,57.44
2023-05-17T17:18:04.515Z,57.39
2023-05-17T17:20:34.000Z,57.10
2023-05-17T17:23:03.678Z,57.42
2023-05-17T17:25:33.196Z,57.02
2023-05-17T17:28:05.101Z,57.68
2023-05-17T17:30:35.757Z,57.32
2023-05-17T17:33:05.413Z,57.02
2023-05-17T17:35:34.858Z,57.42
2023-05-17T17:38:04.744Z,57.07
2023-05-17T17:40:34.391Z,57.24
2023-05-17T17:43:06.314Z,57.69
2023-05-17T17:45:35.844Z,57.67
2023-05-17T17:48:05.242Z,58.12
2023-05-17T17:50:36.130Z,57.75
2023-05-17T17:53:05.640Z,58.13
2023-05-17T17:55:35.054Z,57.67
2023-05-17T17:58:07.276Z,57.74
2023-05-17T18:00:36.909Z,57.68
2023-05-17T18:03:06.437Z,57.60
2023-05-17T18:05:36.151Z,57.75
2023-05-17T18:08:05.525Z,57.71
2023-05-17T18:10:35.063Z,58.04
2023-05-17T18:13:07.362Z,57.70
2023-05-17T18:15:36.734Z,57.43
2023-05-17T18:18:06.411Z,57.53
2023-05-17T18:20:35.990Z,57.23
2023-05-17T18:23:05.375Z,57.40
2023-05-17T18:25:35.123Z,57.67
2023-05-17T18:28:08.841Z,57.72
2023-05-17T18:30:39.612Z,57.96
2023-05-17T18:33:09.064Z,57.23
2023-05-17T18:35:38.748Z,57.64
2023-05-17T18:38:08.437Z,57.81
2023-05-17T18:40:38.760Z,58.29
2023-05-17T18:43:10.708Z,57.64
2023-05-17T18:45:40.435Z,57.37
2023-05-17T18:48:09.856Z,57.50
2023-05-17T18:50:39.449Z,57.06
2023-05-17T18:53:08.921Z,57.15
2023-05-17T18:55:38.274Z,57.22
2023-05-17T18:58:10.593Z,57.40
2023-05-17T19:00:39.998Z,57.00
2023-05-17T19:03:09.401Z,57.39
2023-05-17T19:05:38.819Z,56.83
2023-05-17T19:08:08.580Z,56.54
2023-05-17T19:10:42.236Z,56.87
2023-05-17T19:13:14.272Z,56.54
2023-05-17T19:15:44.341Z,56.73
2023-05-17T19:18:13.942Z,57.02
2023-05-17T19:20:43.419Z,56.65
2023-05-17T19:23:12.813Z,56.96
2023-05-17T19:25:42.152Z,56.95
2023-05-17T19:28:14.111Z,57.78
2023-05-17T19:30:43.552Z,57.45
2023-05-17T19:33:13.129Z,57.16
2023-05-17T19:35:42.547Z,57.48
2023-05-17T19:38:12.299Z,57.47
2023-05-17T19:40:42.025Z,57.39
2023-05-17T19:43:13.953Z,57.94
2023-05-17T19:45:43.528Z,57.47
2023-05-17T19:48:13.338Z,57.24
2023-05-17T19:50:42.718Z,57.78
2023-05-17T19:53:12.112Z,57.99
2023-05-17T19:55:41.504Z,58.05
2023-05-17T19:58:10.883Z,58.71
2023-05-17T20:00:42.941Z,58.62
2023-05-17T20:03:12.369Z,58.77
2023-05-17T20:05:44.877Z,59.39
2023-05-17T20:08:14.272Z,59.59
2023-05-17T20:10:43.636Z,59.83
2023-05-17T20:13:13.120Z,59.97
2023-05-17T20:15:45.047Z,59.21
2023-05-17T20:18:15.391Z,59.09
2023-05-17T20:20:44.808Z,59.12
2023-05-17T20:23:14.385Z,59.61
2023-05-17T20:25:43.837Z,58.89
2023-05-17T20:28:13.168Z,59.07
2023-05-17T20:30:48.242Z,59.15
2023-05-17T20:33:21.527Z,59.38
2023-05-17T20:35:50.936Z,59.24
2023-05-17T20:38:20.318Z,58.91
2023-05-17T20:40:52.116Z,58.79
2023-05-17T20:43:21.594Z,58.75
2023-05-17T20:45:53.880Z,58.52
2023-05-17T20:48:23.404Z,59.20
2023-05-17T20:50:52.816Z,58.76
2023-05-17T20:53:22.223Z,58.38
2023-05-17T20:55:53.727Z,58.60
2023-05-17T20:58:23.280Z,58.24
2023-05-17T21:00:55.466Z,58.15
2023-05-17T21:03:28.225Z,58.09
2023-05-17T21:05:57.934Z,58.26
2023-05-17T21:08:27.358Z,58.09
2023-05-17T21:10:58.070Z,57.99
2023-05-17T21:13:28.093Z,57.94
2023-05-17T21:16:00.196Z,57.87
2023-05-17T21:18:29.725Z,58.16
2023-05-17T21:20:59.140Z,57.90
2023-05-17T21:23:28.625Z,57.65
2023-05-17T21:25:58.097Z,57.83
2023-05-17T21:28:29.998Z,57.15
2023-05-17T21:31:03.914Z,57.05
2023-05-17T21:33:33.768Z,57.16
2023-05-17T21:36:03.320Z,56.83
2023-05-17T21:38:32.796Z,57.12
2023-05-17T21:41:03.495Z,57.09
2023-05-17T21:43:33.030Z,57.02
2023-05-17T21:46:05.927Z,56.53
2023-05-17T21:48:35.467Z,56.73
2023-05-17T21:51:04.973Z,56.50
2023-05-17T21:53:34.641Z,56.78
2023-05-17T21:56:04.064Z,56.95
2023-05-17T21:58:33.960Z,57.07
2023-05-17T22:01:08.040Z,57.09
2023-05-17T22:03:37.765Z,56.94
2023-05-17T22:06:08.108Z,57.06
2023-05-17T22:08:37.484Z,56.92
2023-05-17T22:11:07.353Z,57.34
2023-05-17T22:13:36.862Z,57.49
2023-05-17T22:16:09.675Z,57.22
2023-05-17T22:18:40.378Z,57.45
2023-05-17T22:21:10.232Z,57.66
2023-05-17T22:23:40.170Z,57.78
2023-05-17T22:26:09.922Z,57.68
2023-05-17T22:28:39.737Z,57.73
2023-05-17T22:31:14.908Z,58.04
2023-05-17T22:33:44.808Z,58.08
2023-05-17T22:36:17.813Z,58.21
2023-05-17T22:38:47.803Z,58.29
2023-05-17T22:41:17.665Z,58.33
2023-05-17T22:43:47.695Z,58.48
2023-05-17T22:46:20.338Z,58.68
2023-05-17T22:48:50.396Z,59.09
2023-05-17T22:51:20.062Z,58.65
2023-05-17T22:53:50.129Z,58.84
2023-05-17T22:56:19.870Z,58.58
2023-05-17T22:58:49.595Z,59.22
2023-05-17T23:01:22.146Z,58.80
2023-05-17T23:03:51.915Z,58.80
2023-05-17T23:06:22.274Z,58.41
2023-05-17T23:08:52.616Z,58.86
2023-05-17T23:11:22.468Z,58.79
2023-05-17T23:13:51.860Z,59.04
2023-05-17T23:16:26.077Z,58.98
2023-05-17T23:18:55.548Z,58.77
2023-05-17T23:21:24.943Z,58.65
2023-05-17T23:23:55.681Z,59.15
2023-05-17T23:26:28.616Z,58.88
2023-05-17T23:28:58.182Z,58.63
2023-05-17T23:31:30.252Z,59.34
2023-05-17T23:33:59.793Z,58.91
2023-05-17T23:36:29.185Z,58.44
2023-05-17T23:38:58.531Z,58.95
2023-05-17T23:41:29.580Z,58.65
2023-05-17T23:44:00.585Z,58.62
2023-05-17T23:46:32.688Z,58.42
2023-05-17T23:49:02.385Z,58.79
2023-05-17T23:51:33.374Z,58.81
2023-05-17T23:54:02.848Z,58.67
2023-05-17T23:56:32.237Z,58.86
2023-05-17T23:59:02.111Z,58.41
